sensor_id;sensor_type;location;lat;lon;timestamp;pressure;altitude;pressure_sealevel;temperature;humidity
49297;BME280;35163;48.878;18.040;2023-01-29T00:01:32;99196.53;;;1.53;63.46
49297;BME280;35163;48.878;18.040;2023-01-29T00:03:59;99193.28;;;1.62;63.96
49297;BME280;35163;48.878;18.040;2023-01-29T00:06:25;99190.72;;;1.62;66.43
49297;BME280;35163;48.878;18.040;2023-01-29T00:08:52;99189.75;;;1.54;67.27
49297;BME280;35163;48.878;18.040;2023-01-29T00:11:19;99185.50;;;1.53;68.07
49297;BME280;35163;48.878;18.040;2023-01-29T00:13:49;99184.66;;;1.54;67.80
49297;BME280;35163;48.878;18.040;2023-01-29T00:16:16;99186.28;;;1.50;67.80
49297;BME280;35163;48.878;18.040;2023-01-29T00:18:43;99179.38;;;1.44;68.52
49297;BME280;35163;48.878;18.040;2023-01-29T00:21:14;99176.81;;;1.44;68.79
49297;BME280;35163;48.878;18.040;2023-01-29T00:23:42;99185.25;;;1.40;68.51
49297;BME280;35163;48.878;18.040;2023-01-29T00:26:09;99182.75;;;1.43;68.32
49297;BME280;35163;48.878;18.040;2023-01-29T00:28:36;99181.78;;;1.35;68.48
49297;BME280;35163;48.878;18.040;2023-01-29T00:31:11;99180.13;;;1.39;68.64
49297;BME280;35163;48.878;18.040;2023-01-29T00:33:38;99178.28;;;1.31;68.56
49297;BME280;35163;48.878;18.040;2023-01-29T00:36:07;99175.75;;;1.31;68.74
49297;BME280;35163;48.878;18.040;2023-01-29T00:38:34;99184.06;;;1.23;68.21
49297;BME280;35163;48.878;18.040;2023-01-29T00:43:54;99187.47;;;1.21;68.77
49297;BME280;35163;48.878;18.040;2023-01-29T00:46:39;99179.78;;;1.18;68.76
49297;BME280;35163;48.878;18.040;2023-01-29T00:49:07;99188.13;;;1.11;68.13
49297;BME280;35163;48.878;18.040;2023-01-29T00:51:34;99191.34;;;1.02;68.45
49297;BME280;35163;48.878;18.040;2023-01-29T00:54:02;99198.34;;;1.13;68.50
49297;BME280;35163;48.878;18.040;2023-01-29T00:56:34;99186.97;;;0.96;68.13
49297;BME280;35163;48.878;18.040;2023-01-29T00:59:01;99185.28;;;0.95;68.55
49297;BME280;35163;48.878;18.040;2023-01-29T01:01:28;99188.59;;;0.93;68.95
49297;BME280;35163;48.878;18.040;2023-01-29T01:04:13;99187.63;;;0.86;68.98
49297;BME280;35163;48.878;18.040;2023-01-29T01:06:41;99200.31;;;0.84;68.97
49297;BME280;35163;48.878;18.040;2023-01-29T01:09:09;99195.25;;;0.86;69.01
49297;BME280;35163;48.878;18.040;2023-01-29T01:11:55;99192.66;;;0.83;68.96
49297;BME280;35163;48.878;18.040;2023-01-29T01:14:25;99197.84;;;0.88;68.53
49297;BME280;35163;48.878;18.040;2023-01-29T01:16:52;99187.66;;;0.88;68.45
49297;BME280;35163;48.878;18.040;2023-01-29T01:19:18;99193.50;;;0.82;68.26
49297;BME280;35163;48.878;18.040;2023-01-29T01:21:45;99195.94;;;0.77;68.28
49297;BME280;35163;48.878;18.040;2023-01-29T01:24:15;99195.34;;;0.89;68.27
49297;BME280;35163;48.878;18.040;2023-01-29T01:26:41;99199.69;;;0.95;67.25
49297;BME280;35163;48.878;18.040;2023-01-29T01:29:08;99191.88;;;0.86;68.01
49297;BME280;35163;48.878;18.040;2023-01-29T01:31:34;99199.47;;;0.84;67.00
49297;BME280;35163;48.878;18.040;2023-01-29T01:34:01;99195.13;;;0.80;67.37
49297;BME280;35163;48.878;18.040;2023-01-29T01:36:27;99192.63;;;0.81;67.27
49297;BME280;35163;48.878;18.040;2023-01-29T01:38:54;99192.47;;;0.74;67.31
49297;BME280;35163;48.878;18.040;2023-01-29T01:41:21;99201.72;;;0.68;67.40
49297;BME280;35163;48.878;18.040;2023-01-29T01:43:54;99211.88;;;0.68;67.90
49297;BME280;35163;48.878;18.040;2023-01-29T01:46:22;99201.72;;;0.68;67.45
49297;BME280;35163;48.878;18.040;2023-01-29T01:49:00;99203.31;;;0.65;67.24
49297;BME280;35163;48.878;18.040;2023-01-29T01:51:29;99209.97;;;0.58;67.48
49297;BME280;35163;48.878;18.040;2023-01-29T01:54:16;99207.38;;;0.56;67.98
49297;BME280;35163;48.878;18.040;2023-01-29T01:56:46;99217.38;;;0.48;67.61
49297;BME280;35163;48.878;18.040;2023-01-29T01:59:16;99207.28;;;0.52;67.80
49297;BME280;35163;48.878;18.040;2023-01-29T02:01:48;99210.63;;;0.49;67.77
49297;BME280;35163;48.878;18.040;2023-01-29T02:04:20;99217.44;;;0.52;66.58
49297;BME280;35163;48.878;18.040;2023-01-29T02:07:08;99221.38;;;0.37;66.83
49297;BME280;35163;48.878;18.040;2023-01-29T02:10:00;99212.09;;;0.39;67.10
49297;BME280;35163;48.878;18.040;2023-01-29T02:12:30;99213.91;;;0.45;66.40
49297;BME280;35163;48.878;18.040;2023-01-29T02:14:58;99208.72;;;0.40;66.74
49297;BME280;35163;48.878;18.040;2023-01-29T02:17:25;99212.78;;;0.32;66.39
49297;BME280;35163;48.878;18.040;2023-01-29T02:25:49;99216.16;;;0.31;66.34
49297;BME280;35163;48.878;18.040;2023-01-29T02:28:44;99211.88;;;0.30;66.80
49297;BME280;35163;48.878;18.040;2023-01-29T02:31:34;99202.25;;;0.16;67.02
49297;BME280;35163;48.878;18.040;2023-01-29T02:34:12;99215.94;;;0.21;67.32
49297;BME280;35163;48.878;18.040;2023-01-29T02:36:49;99212.66;;;0.26;66.87
49297;BME280;35163;48.878;18.040;2023-01-29T02:44:47;99216.75;;;0.19;66.84
49297;BME280;35163;48.878;18.040;2023-01-29T02:47:39;99217.75;;;0.26;66.84
49297;BME280;35163;48.878;18.040;2023-01-29T02:50:16;99218.53;;;0.24;66.42
49297;BME280;35163;48.878;18.040;2023-01-29T02:55:27;99239.72;;;0.23;65.85
49297;BME280;35163;48.878;18.040;2023-01-29T02:58:03;99226.97;;;0.22;65.01
49297;BME280;35163;48.878;18.040;2023-01-29T03:00:34;99231.09;;;0.17;64.99
49297;BME280;35163;48.878;18.040;2023-01-29T03:03:16;99232.56;;;0.07;65.88
49297;BME280;35163;48.878;18.040;2023-01-29T03:05:55;99228.19;;;0.01;66.12
49297;BME280;35163;48.878;18.040;2023-01-29T03:08:31;99225.53;;;-0.04;65.92
49297;BME280;35163;48.878;18.040;2023-01-29T03:11:12;99221.19;;;-0.08;66.10
49297;BME280;35163;48.878;18.040;2023-01-29T03:19:01;99216.91;;;-0.10;65.59
49297;BME280;35163;48.878;18.040;2023-01-29T03:21:32;99213.28;;;-0.19;66.15
49297;BME280;35163;48.878;18.040;2023-01-29T03:24:24;99214.19;;;-0.17;65.94
49297;BME280;35163;48.878;18.040;2023-01-29T03:27:12;99209.97;;;-0.16;65.40
49297;BME280;35163;48.878;18.040;2023-01-29T03:29:59;99211.81;;;-0.10;65.68
49297;BME280;35163;48.878;18.040;2023-01-29T03:32:47;99212.41;;;-0.21;65.99
49297;BME280;35163;48.878;18.040;2023-01-29T03:35:21;99211.72;;;-0.14;65.49
49297;BME280;35163;48.878;18.040;2023-01-29T03:37:59;99211.66;;;-0.17;65.36
49297;BME280;35163;48.878;18.040;2023-01-29T03:40:28;99209.31;;;-0.09;64.65
49297;BME280;35163;48.878;18.040;2023-01-29T03:43:08;99210.34;;;-0.01;64.29
49297;BME280;35163;48.878;18.040;2023-01-29T03:48:40;99215.22;;;-0.08;64.17
49297;BME280;35163;48.878;18.040;2023-01-29T03:51:18;99210.94;;;-0.11;64.65
49297;BME280;35163;48.878;18.040;2023-01-29T03:59:38;99216.72;;;-0.17;64.17
49297;BME280;35163;48.878;18.040;2023-01-29T04:01:43;99208.97;;;-0.23;64.12
49297;BME280;35163;48.878;18.040;2023-01-29T04:04:18;99222.72;;;-0.15;63.66
49297;BME280;35163;48.878;18.040;2023-01-29T04:06:49;99218.56;;;-0.11;63.02
49297;BME280;35163;48.878;18.040;2023-01-29T04:09:22;99227.25;;;-0.03;62.78
49297;BME280;35163;48.878;18.040;2023-01-29T04:11:58;99227.13;;;-0.07;64.06
49297;BME280;35163;48.878;18.040;2023-01-29T04:14:27;99234.81;;;-0.06;63.25
49297;BME280;35163;48.878;18.040;2023-01-29T04:16:56;99235.72;;;-0.04;63.04
49297;BME280;35163;48.878;18.040;2023-01-29T04:19:26;99237.41;;;-0.03;63.08
49297;BME280;35163;48.878;18.040;2023-01-29T04:22:02;99241.34;;;-0.16;62.93
49297;BME280;35163;48.878;18.040;2023-01-29T04:24:31;99233.75;;;-0.14;62.45
49297;BME280;35163;48.878;18.040;2023-01-29T04:30:08;99247.44;;;-0.09;61.25
49297;BME280;35163;48.878;18.040;2023-01-29T04:35:40;99251.22;;;-0.27;61.20
49297;BME280;35163;48.878;18.040;2023-01-29T04:38:38;99238.66;;;-0.20;61.99
49297;BME280;35163;48.878;18.040;2023-01-29T04:41:25;99250.66;;;-0.16;61.34
49297;BME280;35163;48.878;18.040;2023-01-29T04:58:14;99240.56;;;-0.13;61.82
49297;BME280;35163;48.878;18.040;2023-01-29T05:00:44;99230.38;;;-0.13;61.10
49297;BME280;35163;48.878;18.040;2023-01-29T05:03:15;99230.53;;;-0.07;61.42
49297;BME280;35163;48.878;18.040;2023-01-29T05:05:45;99222.16;;;-0.03;60.90
49297;BME280;35163;48.878;18.040;2023-01-29T05:08:17;99230.72;;;0.01;61.28
49297;BME280;35163;48.878;18.040;2023-01-29T05:10:46;99231.44;;;-0.05;60.64
49297;BME280;35163;48.878;18.040;2023-01-29T05:13:14;99218.72;;;-0.05;60.82
49297;BME280;35163;48.878;18.040;2023-01-29T05:15:49;99234.00;;;-0.03;60.10
49297;BME280;35163;48.878;18.040;2023-01-29T05:18:17;99230.31;;;-0.16;59.80
49297;BME280;35163;48.878;18.040;2023-01-29T05:20:45;99243.16;;;-0.10;60.10
49297;BME280;35163;48.878;18.040;2023-01-29T05:23:21;99245.75;;;-0.08;58.75
49297;BME280;35163;48.878;18.040;2023-01-29T05:25:48;99237.81;;;-0.21;58.84
49297;BME280;35163;48.878;18.040;2023-01-29T05:28:15;99237.91;;;-0.18;58.73
49297;BME280;35163;48.878;18.040;2023-01-29T05:30:53;99230.31;;;-0.16;57.81
49297;BME280;35163;48.878;18.040;2023-01-29T05:33:29;99240.22;;;-0.26;57.23
49297;BME280;35163;48.878;18.040;2023-01-29T05:35:58;99232.59;;;-0.26;58.49
49297;BME280;35163;48.878;18.040;2023-01-29T05:38:25;99225.44;;;-0.41;58.62
49297;BME280;35163;48.878;18.040;2023-01-29T05:40:52;99225.69;;;-0.31;58.34
49297;BME280;35163;48.878;18.040;2023-01-29T05:43:23;99230.00;;;-0.29;58.35
49297;BME280;35163;48.878;18.040;2023-01-29T05:45:59;99226.31;;;-0.40;58.76
49297;BME280;35163;48.878;18.040;2023-01-29T05:48:27;99228.88;;;-0.40;58.33
49297;BME280;35163;48.878;18.040;2023-01-29T05:50:59;99228.06;;;-0.38;58.96
49297;BME280;35163;48.878;18.040;2023-01-29T05:53:27;99222.78;;;-0.45;58.38
49297;BME280;35163;48.878;18.040;2023-01-29T05:55:54;99220.00;;;-0.55;59.42
49297;BME280;35163;48.878;18.040;2023-01-29T05:58:22;99210.75;;;-0.53;59.02
49297;BME280;35163;48.878;18.040;2023-01-29T06:00:49;99216.00;;;-0.46;58.91
49297;BME280;35163;48.878;18.040;2023-01-29T06:03:15;99216.09;;;-0.43;58.25
49297;BME280;35163;48.878;18.040;2023-01-29T06:05:45;99225.03;;;-0.56;57.77
49297;BME280;35163;48.878;18.040;2023-01-29T06:08:11;99225.66;;;-0.65;57.90
49297;BME280;35163;48.878;18.040;2023-01-29T06:10:38;99234.25;;;-0.60;58.45
49297;BME280;35163;48.878;18.040;2023-01-29T06:13:05;99237.72;;;-0.58;58.41
49297;BME280;35163;48.878;18.040;2023-01-29T06:15:32;99242.75;;;-0.59;59.94
49297;BME280;35163;48.878;18.040;2023-01-29T06:17:58;99242.88;;;-0.55;59.26
49297;BME280;35163;48.878;18.040;2023-01-29T06:20:31;99239.69;;;-0.47;59.54
49297;BME280;35163;48.878;18.040;2023-01-29T06:22:58;99240.59;;;-0.45;59.17
49297;BME280;35163;48.878;18.040;2023-01-29T06:25:25;99249.75;;;-0.51;58.40
49297;BME280;35163;48.878;18.040;2023-01-29T06:27:51;99254.00;;;-0.50;58.96
49297;BME280;35163;48.878;18.040;2023-01-29T06:30:18;99255.50;;;-0.58;58.84
49297;BME280;35163;48.878;18.040;2023-01-29T06:32:45;99264.09;;;-0.53;58.88
49297;BME280;35163;48.878;18.040;2023-01-29T06:35:11;99254.50;;;-0.63;58.50
49297;BME280;35163;48.878;18.040;2023-01-29T06:37:38;99258.03;;;-0.58;59.40
49297;BME280;35163;48.878;18.040;2023-01-29T06:40:05;99261.63;;;-0.50;58.54
49297;BME280;35163;48.878;18.040;2023-01-29T06:42:34;99266.00;;;-0.45;57.38
49297;BME280;35163;48.878;18.040;2023-01-29T06:45:00;99266.06;;;-0.42;58.23
49297;BME280;35163;48.878;18.040;2023-01-29T06:47:27;99263.78;;;-0.33;58.04
49297;BME280;35163;48.878;18.040;2023-01-29T06:49:54;99266.97;;;-0.40;58.49
49297;BME280;35163;48.878;18.040;2023-01-29T06:52:24;99266.97;;;-0.40;58.61
49297;BME280;35163;48.878;18.040;2023-01-29T06:54:56;99262.06;;;-0.34;58.33
49297;BME280;35163;48.878;18.040;2023-01-29T06:57:23;99267.09;;;-0.35;57.50
49297;BME280;35163;48.878;18.040;2023-01-29T06:59:50;99268.63;;;-0.42;57.76
49297;BME280;35163;48.878;18.040;2023-01-29T07:02:19;99276.25;;;-0.42;57.99
49297;BME280;35163;48.878;18.040;2023-01-29T07:04:45;99268.03;;;-0.32;57.31
49297;BME280;35163;48.878;18.040;2023-01-29T07:07:12;99263.88;;;-0.30;57.07
49297;BME280;35163;48.878;18.040;2023-01-29T07:09:40;99270.28;;;-0.43;58.09
49297;BME280;35163;48.878;18.040;2023-01-29T07:12:08;99269.69;;;-0.34;57.45
49297;BME280;35163;48.878;18.040;2023-01-29T07:14:35;99273.13;;;-0.32;57.41
49297;BME280;35163;48.878;18.040;2023-01-29T07:17:02;99273.19;;;-0.29;57.73
49297;BME280;35163;48.878;18.040;2023-01-29T07:19:29;99273.19;;;-0.29;57.55
49297;BME280;35163;48.878;18.040;2023-01-29T07:21:55;99275.19;;;-0.17;56.93
49297;BME280;35163;48.878;18.040;2023-01-29T07:24:22;99274.22;;;-0.22;56.75
49297;BME280;35163;48.878;18.040;2023-01-29T07:26:49;99275.94;;;-0.22;56.80
49297;BME280;35163;48.878;18.040;2023-01-29T07:29:16;99285.06;;;-0.29;57.20
49297;BME280;35163;48.878;18.040;2023-01-29T07:31:42;99278.31;;;-0.27;57.18
49297;BME280;35163;48.878;18.040;2023-01-29T07:34:09;99279.13;;;-0.30;57.18
49297;BME280;35163;48.878;18.040;2023-01-29T07:36:36;99283.25;;;-0.33;56.95
49297;BME280;35163;48.878;18.040;2023-01-29T07:39:05;99282.41;;;-0.32;56.67
49297;BME280;35163;48.878;18.040;2023-01-29T07:41:31;99285.56;;;-0.41;57.96
49297;BME280;35163;48.878;18.040;2023-01-29T07:43:58;99285.75;;;-0.35;58.05
49297;BME280;35163;48.878;18.040;2023-01-29T07:46:25;99288.22;;;-0.38;58.46
49297;BME280;35163;48.878;18.040;2023-01-29T07:48:51;99285.09;;;-0.28;58.48
49297;BME280;35163;48.878;18.040;2023-01-29T07:51:18;99280.19;;;-0.21;58.71
49297;BME280;35163;48.878;18.040;2023-01-29T07:53:46;99290.16;;;-0.29;57.99
49297;BME280;35163;48.878;18.040;2023-01-29T07:56:13;99295.34;;;-0.25;58.87
49297;BME280;35163;48.878;18.040;2023-01-29T07:58:40;99294.53;;;-0.23;58.09
49297;BME280;35163;48.878;18.040;2023-01-29T08:01:06;99296.31;;;-0.21;58.09
49297;BME280;35163;48.878;18.040;2023-01-29T08:03:33;99288.78;;;-0.16;57.30
49297;BME280;35163;48.878;18.040;2023-01-29T08:06:02;99289.84;;;-0.08;57.05
49297;BME280;35163;48.878;18.040;2023-01-29T08:08:29;99289.00;;;-0.07;57.12
49297;BME280;35163;48.878;18.040;2023-01-29T08:10:59;99289.75;;;-0.11;57.18
49297;BME280;35163;48.878;18.040;2023-01-29T08:13:26;99291.41;;;-0.13;57.52
49297;BME280;35163;48.878;18.040;2023-01-29T08:15:53;99297.44;;;-0.09;57.38
49297;BME280;35163;48.878;18.040;2023-01-29T08:18:22;99301.81;;;-0.04;56.99
49297;BME280;35163;48.878;18.040;2023-01-29T08:20:52;99301.59;;;-0.11;57.28
49297;BME280;35163;48.878;18.040;2023-01-29T08:23:19;99297.34;;;-0.13;56.68
49297;BME280;35163;48.878;18.040;2023-01-29T08:25:45;99300.59;;;-0.18;56.49
49297;BME280;35163;48.878;18.040;2023-01-29T08:28:12;99302.16;;;-0.23;56.59
49297;BME280;35163;48.878;18.040;2023-01-29T08:30:39;99298.53;;;-0.32;57.55
49297;BME280;35163;48.878;18.040;2023-01-29T08:33:07;99302.19;;;-0.22;57.93
49297;BME280;35163;48.878;18.040;2023-01-29T08:35:34;99305.59;;;-0.21;57.65
49297;BME280;35163;48.878;18.040;2023-01-29T08:38:02;99305.47;;;-0.26;58.23
49297;BME280;35163;48.878;18.040;2023-01-29T08:40:37;99321.69;;;-0.22;57.40
49297;BME280;35163;48.878;18.040;2023-01-29T08:43:05;99321.81;;;-0.18;57.58
49297;BME280;35163;48.878;18.040;2023-01-29T08:45:37;99325.28;;;-0.14;58.58
49297;BME280;35163;48.878;18.040;2023-01-29T08:48:05;99334.66;;;-0.11;60.15
49297;BME280;35163;48.878;18.040;2023-01-29T08:50:32;99330.59;;;-0.37;58.21
49297;BME280;35163;48.878;18.040;2023-01-29T08:53:02;99329.88;;;-0.33;58.29
49297;BME280;35163;48.878;18.040;2023-01-29T08:55:28;99336.50;;;-0.38;58.06
49297;BME280;35163;48.878;18.040;2023-01-29T08:57:55;99331.50;;;-0.35;58.31
49297;BME280;35163;48.878;18.040;2023-01-29T09:00:25;99340.84;;;-0.34;58.67
49297;BME280;35163;48.878;18.040;2023-01-29T09:02:53;99344.94;;;-0.39;57.91
49297;BME280;35163;48.878;18.040;2023-01-29T09:05:20;99353.41;;;-0.40;58.19
49297;BME280;35163;48.878;18.040;2023-01-29T09:07:47;99355.84;;;-0.43;58.23
49297;BME280;35163;48.878;18.040;2023-01-29T09:10:14;99353.28;;;-0.45;59.03
49297;BME280;35163;48.878;18.040;2023-01-29T09:12:40;99361.13;;;-0.35;58.32
49297;BME280;35163;48.878;18.040;2023-01-29T09:15:08;99365.34;;;-0.36;58.27
49297;BME280;35163;48.878;18.040;2023-01-29T09:17:34;99364.50;;;-0.37;58.85
49297;BME280;35163;48.878;18.040;2023-01-29T09:20:03;99352.72;;;-0.34;58.68
49297;BME280;35163;48.878;18.040;2023-01-29T09:22:36;99361.34;;;-0.29;59.41
49297;BME280;35163;48.878;18.040;2023-01-29T09:25:03;99357.22;;;-0.24;59.16
49297;BME280;35163;48.878;18.040;2023-01-29T09:27:29;99355.47;;;-0.27;59.20
49297;BME280;35163;48.878;18.040;2023-01-29T09:29:56;99363.25;;;-0.20;58.49
49297;BME280;35163;48.878;18.040;2023-01-29T09:32:23;99374.41;;;-0.15;56.91
49297;BME280;35163;48.878;18.040;2023-01-29T09:35:12;99359.84;;;-0.21;57.50
49297;BME280;35163;48.878;18.040;2023-01-29T09:37:41;99368.59;;;-0.11;56.03
49297;BME280;35163;48.878;18.040;2023-01-29T09:40:29;99360.63;;;-0.23;55.93
49297;BME280;35163;48.878;18.040;2023-01-29T09:43:11;99349.47;;;-0.29;56.16
49297;BME280;35163;48.878;18.040;2023-01-29T09:45:48;99344.34;;;-0.30;56.65
49297;BME280;35163;48.878;18.040;2023-01-29T09:48:17;99348.91;;;-0.18;57.27
49297;BME280;35163;48.878;18.040;2023-01-29T09:50:48;99345.44;;;-0.20;56.75
49297;BME280;35163;48.878;18.040;2023-01-29T09:53:28;99356.44;;;-0.21;56.06
49297;BME280;35163;48.878;18.040;2023-01-29T09:56:01;99346.28;;;-0.21;56.74
49297;BME280;35163;48.878;18.040;2023-01-29T09:58:34;99348.91;;;-0.18;56.56
49297;BME280;35163;48.878;18.040;2023-01-29T10:04:04;99335.56;;;-0.09;56.07
49297;BME280;35163;48.878;18.040;2023-01-29T10:06:55;99330.41;;;-0.13;55.35
49297;BME280;35163;48.878;18.040;2023-01-29T10:23:32;99291.28;;;0.16;52.96
49297;BME280;35163;48.878;18.040;2023-01-29T10:26:00;99289.69;;;0.20;53.34
49297;BME280;35163;48.878;18.040;2023-01-29T10:31:10;99278.63;;;0.19;53.33
49297;BME280;35163;48.878;18.040;2023-01-29T10:33:52;99282.03;;;0.20;52.66
49297;BME280;35163;48.878;18.040;2023-01-29T10:36:41;99280.50;;;0.27;52.41
49297;BME280;35163;48.878;18.040;2023-01-29T10:39:19;99290.69;;;0.27;52.41
49297;BME280;35163;48.878;18.040;2023-01-29T10:47:18;99295.38;;;0.46;51.65
49297;BME280;35163;48.878;18.040;2023-01-29T10:50:25;99306.41;;;0.45;51.54
49297;BME280;35163;48.878;18.040;2023-01-29T10:53:30;99298.00;;;0.48;51.38
49297;BME280;35163;48.878;18.040;2023-01-29T10:56:22;99299.38;;;0.35;50.72
49297;BME280;35163;48.878;18.040;2023-01-29T10:58:54;99287.81;;;0.48;51.41
49297;BME280;35163;48.878;18.040;2023-01-29T11:01:23;99288.59;;;0.45;50.22
49297;BME280;35163;48.878;18.040;2023-01-29T11:04:10;99270.97;;;0.53;51.25
49297;BME280;35163;48.878;18.040;2023-01-29T11:06:37;99268.69;;;0.67;50.14
49297;BME280;35163;48.878;18.040;2023-01-29T11:12:04;99268.56;;;0.61;48.89
49297;BME280;35163;48.878;18.040;2023-01-29T11:15:05;99268.63;;;0.64;49.50
49297;BME280;35163;48.878;18.040;2023-01-29T11:18:00;99259.47;;;0.72;49.88
49297;BME280;35163;48.878;18.040;2023-01-29T11:20:28;99240.69;;;0.67;48.55
49297;BME280;35163;48.878;18.040;2023-01-29T11:22:56;99243.25;;;0.67;49.91
49297;BME280;35163;48.878;18.040;2023-01-29T11:25:25;99231.59;;;0.77;49.69
49297;BME280;35163;48.878;18.040;2023-01-29T11:27:58;99231.53;;;0.76;50.18
49297;BME280;35163;48.878;18.040;2023-01-29T11:30:33;99224.69;;;0.71;49.18
49297;BME280;35163;48.878;18.040;2023-01-29T11:35:35;99203.69;;;0.82;48.31
49297;BME280;35163;48.878;18.040;2023-01-29T11:40:44;99186.59;;;0.78;48.17
49297;BME280;35163;48.878;18.040;2023-01-29T11:43:45;99187.63;;;0.86;48.25
49297;BME280;35163;48.878;18.040;2023-01-29T11:46:10;99191.84;;;0.84;48.74
49297;BME280;35163;48.878;18.040;2023-01-29T11:48:48;99183.63;;;0.98;48.65
49297;BME280;35163;48.878;18.040;2023-01-29T11:51:22;99182.84;;;1.02;48.50
49297;BME280;35163;48.878;18.040;2023-01-29T11:53:55;99172.78;;;1.08;48.71
49297;BME280;35163;48.878;18.040;2023-01-29T11:56:28;99175.19;;;1.02;48.42
49297;BME280;35163;48.878;18.040;2023-01-29T11:58:56;99164.09;;;1.00;48.14
49297;BME280;35163;48.878;18.040;2023-01-29T12:01:36;99158.25;;;1.04;49.04
49297;BME280;35163;48.878;18.040;2023-01-29T12:04:19;99152.75;;;1.27;48.68
49297;BME280;35163;48.878;18.040;2023-01-29T12:06:48;99146.81;;;1.29;48.89
49297;BME280;35163;48.878;18.040;2023-01-29T12:09:26;99135.56;;;1.16;47.18
49297;BME280;35163;48.878;18.040;2023-01-29T12:11:54;99134.50;;;1.05;48.59
49297;BME280;35163;48.878;18.040;2023-01-29T12:14:30;99130.34;;;1.10;48.76
49297;BME280;35163;48.878;18.040;2023-01-29T12:17:03;99124.47;;;1.14;48.09
49297;BME280;35163;48.878;18.040;2023-01-29T12:19:49;99125.25;;;1.10;48.67
49297;BME280;35163;48.878;18.040;2023-01-29T12:24:58;99111.06;;;1.23;47.39
49297;BME280;35163;48.878;18.040;2023-01-29T12:27:37;99101.78;;;1.27;48.39
49297;BME280;35163;48.878;18.040;2023-01-29T12:35:45;99103.19;;;1.11;48.34
49297;BME280;35163;48.878;18.040;2023-01-29T12:38:17;99104.78;;;1.05;48.35
49297;BME280;35163;48.878;18.040;2023-01-29T12:40:48;99105.63;;;1.04;48.00
49297;BME280;35163;48.878;18.040;2023-01-29T12:43:38;99106.38;;;1.00;47.81
49297;BME280;35163;48.878;18.040;2023-01-29T12:46:28;99103.06;;;1.03;47.99
49297;BME280;35163;48.878;18.040;2023-01-29T12:49:02;99101.31;;;1.02;47.84
49297;BME280;35163;48.878;18.040;2023-01-29T12:51:40;99096.34;;;1.08;48.27
49297;BME280;35163;48.878;18.040;2023-01-29T12:54:17;99088.72;;;1.08;47.77
49297;BME280;35163;48.878;18.040;2023-01-29T12:56:50;99090.66;;;1.23;48.11
49297;BME280;35163;48.878;18.040;2023-01-29T12:59:29;99086.56;;;1.31;48.10
49297;BME280;35163;48.878;18.040;2023-01-29T13:02:14;99092.53;;;1.32;47.54
49297;BME280;35163;48.878;18.040;2023-01-29T13:04:47;99088.06;;;1.20;48.34
49297;BME280;35163;48.878;18.040;2023-01-29T13:07:26;99076.97;;;1.16;47.31
49297;BME280;35163;48.878;18.040;2023-01-29T13:10:02;99090.53;;;1.15;48.09
49297;BME280;35163;48.878;18.040;2023-01-29T13:12:32;99094.78;;;1.15;48.13
49297;BME280;35163;48.878;18.040;2023-01-29T13:15:04;99092.13;;;1.10;48.95
49297;BME280;35163;48.878;18.040;2023-01-29T13:17:36;99083.63;;;1.08;48.83
49297;BME280;35163;48.878;18.040;2023-01-29T13:20:28;99089.50;;;1.05;48.66
49297;BME280;35163;48.878;18.040;2023-01-29T13:26:00;99085.34;;;1.11;49.36
49297;BME280;35163;48.878;18.040;2023-01-29T13:28:27;99090.41;;;1.09;48.56
49297;BME280;35163;48.878;18.040;2023-01-29T13:31:27;99082.72;;;1.06;48.73
49297;BME280;35163;48.878;18.040;2023-01-29T13:36:48;99095.56;;;1.12;48.37
49297;BME280;35163;48.878;18.040;2023-01-29T13:39:23;99095.47;;;1.06;48.65
49297;BME280;35163;48.878;18.040;2023-01-29T13:41:53;99095.50;;;1.07;48.58
49297;BME280;35163;48.878;18.040;2023-01-29T13:44:27;99093.00;;;1.11;48.28
49297;BME280;35163;48.878;18.040;2023-01-29T13:47:00;99090.47;;;1.12;48.08
49297;BME280;35163;48.878;18.040;2023-01-29T13:49:37;99088.78;;;1.11;48.94
49297;BME280;35163;48.878;18.040;2023-01-29T13:54:48;99093.81;;;1.08;48.24
49297;BME280;35163;48.878;18.040;2023-01-29T14:00:04;99092.09;;;1.08;48.16
49297;BME280;35163;48.878;18.040;2023-01-29T14:02:32;99083.66;;;1.11;48.78
49297;BME280;35163;48.878;18.040;2023-01-29T14:08:01;99077.66;;;1.07;49.16
49297;BME280;35163;48.878;18.040;2023-01-29T14:10:31;99082.06;;;1.16;48.00
49297;BME280;35163;48.878;18.040;2023-01-29T14:18:26;99091.31;;;1.11;49.12
49297;BME280;35163;48.878;18.040;2023-01-29T14:20:59;99088.63;;;1.05;48.65
49297;BME280;35163;48.878;18.040;2023-01-29T14:29:19;99090.13;;;0.93;49.86
49297;BME280;35163;48.878;18.040;2023-01-29T14:32:12;99087.44;;;0.84;49.75
49297;BME280;35163;48.878;18.040;2023-01-29T14:34:43;99091.66;;;0.83;50.88
49297;BME280;35163;48.878;18.040;2023-01-29T14:42:50;99080.75;;;0.89;49.76
49297;BME280;35163;48.878;18.040;2023-01-29T14:50:49;99097.44;;;0.75;50.38
49297;BME280;35163;48.878;18.040;2023-01-29T14:58:43;99092.94;;;0.61;50.86
49297;BME280;35163;48.878;18.040;2023-01-29T15:01:27;99100.38;;;0.52;51.45
49297;BME280;35163;48.878;18.040;2023-01-29T15:04:05;99092.59;;;0.44;51.55
49297;BME280;35163;48.878;18.040;2023-01-29T15:06:45;99095.09;;;0.42;52.42
49297;BME280;35163;48.878;18.040;2023-01-29T15:11:56;99088.97;;;0.32;52.67
49297;BME280;35163;48.878;18.040;2023-01-29T15:14:34;99087.16;;;0.27;52.16
49297;BME280;35163;48.878;18.040;2023-01-29T15:19:58;99080.19;;;0.18;52.70
49297;BME280;35163;48.878;18.040;2023-01-29T15:22:25;99078.31;;;0.10;52.93
49297;BME280;35163;48.878;18.040;2023-01-29T15:25:19;99076.72;;;0.14;52.68
49297;BME280;35163;48.878;18.040;2023-01-29T15:27:47;99076.59;;;0.08;53.37
49297;BME280;35163;48.878;18.040;2023-01-29T15:30:19;99075.03;;;0.15;53.23
49297;BME280;35163;48.878;18.040;2023-01-29T15:32:47;99073.34;;;0.15;54.39
49297;BME280;35163;48.878;18.040;2023-01-29T15:35:28;99068.88;;;0.03;54.34
49297;BME280;35163;48.878;18.040;2023-01-29T15:38:17;99066.31;;;0.03;53.72
49297;BME280;35163;48.878;18.040;2023-01-29T15:40:52;99071.38;;;0.02;53.89
49297;BME280;35163;48.878;18.040;2023-01-29T15:43:34;99077.97;;;-0.07;54.63